Map

Track Data

SID SEASON NUMBER BASIN SUBBASIN NAME ISO_TIME NATURE LAT LON WMO_WIND WMO_PRES WMO_AGENCY TRACK_TYPE DIST2LAND LANDFALL IFLAG USA_AGENCY USA_ATCF_ID USA_LAT USA_LON USA_RECORD USA_STATUS USA_WIND USA_PRES USA_SSHS USA_R34_NE USA_R34_SE USA_R34_SW USA_R34_NW USA_R50_NE USA_R50_SE USA_R50_SW USA_R50_NW USA_R64_NE USA_R64_SE USA_R64_SW USA_R64_NW USA_POCI USA_ROCI USA_RMW USA_EYE TOKYO_LAT TOKYO_LON TOKYO_GRADE TOKYO_WIND TOKYO_PRES TOKYO_R50_DIR TOKYO_R50_LONG TOKYO_R50_SHORT TOKYO_R30_DIR TOKYO_R30_LONG TOKYO_R30_SHORT TOKYO_LAND CMA_LAT CMA_LON CMA_CAT CMA_WIND CMA_PRES HKO_LAT HKO_LON HKO_CAT HKO_WIND HKO_PRES NEWDELHI_LAT NEWDELHI_LON NEWDELHI_GRADE NEWDELHI_WIND NEWDELHI_PRES NEWDELHI_CI NEWDELHI_DP NEWDELHI_POCI REUNION_LAT REUNION_LON REUNION_TYPE REUNION_WIND REUNION_PRES REUNION_TNUM REUNION_CI REUNION_RMW REUNION_R34_NE REUNION_R34_SE REUNION_R34_SW REUNION_R34_NW REUNION_R50_NE REUNION_R50_SE REUNION_R50_SW REUNION_R50_NW REUNION_R64_NE REUNION_R64_SE REUNION_R64_SW REUNION_R64_NW BOM_LAT BOM_LON BOM_TYPE BOM_WIND BOM_PRES BOM_TNUM BOM_CI BOM_RMW BOM_R34_NE BOM_R34_SE BOM_R34_SW BOM_R34_NW BOM_R50_NE BOM_R50_SE BOM_R50_SW BOM_R50_NW BOM_R64_NE BOM_R64_SE BOM_R64_SW BOM_R64_NW BOM_ROCI BOM_POCI BOM_EYE BOM_POS_METHOD BOM_PRES_METHOD NADI_LAT NADI_LON NADI_CAT NADI_WIND NADI_PRES WELLINGTON_LAT WELLINGTON_LON WELLINGTON_WIND WELLINGTON_PRES DS824_LAT DS824_LON DS824_STAGE DS824_WIND DS824_PRES TD9636_LAT TD9636_LON TD9636_STAGE TD9636_WIND TD9636_PRES TD9635_LAT TD9635_LON TD9635_WIND TD9635_PRES TD9635_ROCI NEUMANN_LAT NEUMANN_LON NEUMANN_CLASS NEUMANN_WIND NEUMANN_PRES MLC_LAT MLC_LON MLC_CLASS MLC_WIND MLC_PRES USA_GUST BOM_GUST BOM_GUST_PER REUNION_GUST REUNION_GUST_PER USA_SEAHGT USA_SEARAD_NE USA_SEARAD_SE USA_SEARAD_SW USA_SEARAD_NW STORM_SPEED STORM_DIR
1918091S13424 1918 28 SI MM NOT_NAMED 1918-03-31 18:00:00 NR -12.9000 64.0000 spur-merge 1048 1022 __________O___ -1 -12.9000 64.0000 7 9 265
1918091S13424 1918 28 SI MM NOT_NAMED 1918-03-31 21:00:00 NR -12.9439 63.5293 spur-merge 1015 980 __________P___ -1 -12.9439 63.5293 7 9 264
1918091S13424 1918 28 SI MM NOT_NAMED 1918-04-01 00:00:00 NR -12.9999 63.0370 spur-merge 974 935 __________P___ -1 -12.9999 63.0370 7 10 262
1918091S13424 1918 28 SI MM NOT_NAMED 1918-04-01 03:00:00 NR -13.0811 62.5012 spur-merge 935 892 __________P___ -1 -13.0811 62.5012 7 11 260
1918091S13424 1918 28 SI MM NOT_NAMED 1918-04-01 06:00:00 NR -13.2000 61.9000 spur-merge 892 842 __________O___ -1 -13.2000 61.9000 7 13 257
1918091S13424 1918 28 SI MM NOT_NAMED 1918-04-01 09:00:00 NR -13.3644 61.2206 spur-merge 837 786 __________P___ -1 -13.3644 61.2206 7 14 255
1918091S13424 1918 28 SI MM NOT_NAMED 1918-04-01 12:00:00 NR -13.5630 60.4879 spur-merge 786 739 __________P___ -1 -13.5630 60.4879 7 15 254
1918091S13424 1918 28 SI MM NOT_NAMED 1918-04-01 15:00:00 NR -13.7800 59.7361 spur-merge 736 696 __________P___ -1 -13.7800 59.7361 7 15 253
1918091S13424 1918 28 SI MM NOT_NAMED 1918-04-01 18:00:00 NR -14.0000 59.0000 spur-merge 696 663 __________O___ -1 -14.0000 59.0000 7 15 253
1918091S13424 1918 28 SI MM NOT_NAMED 1918-04-01 21:00:00 NR -14.2123 58.2678 spur-merge 663 637 __________P___ -1 -14.2123 58.2678 7 15 253
1918091S13424 1918 28 SI MM NOT_NAMED 1918-04-02 00:00:00 NR -14.4228 57.5655 spur-merge 637 616 __________P___ -1 -14.4228 57.5655 7 14 252
1918091S13424 1918 28 SI MM NOT_NAMED 1918-04-02 03:00:00 NR -14.6219 56.9304 spur-merge 618 602 __________P___ -1 -14.6219 56.9304 7 12 252
1918091S13424 1918 28 SI MM NOT_NAMED 1918-04-02 06:00:00 NR -14.8000 56.4000 spur-merge 604 591 __________O___ -1 -14.8000 56.4000 7 9 250
1918091S13424 1918 28 SI MM NOT_NAMED 1918-04-02 09:00:00 NR -14.9455 56.0126 spur-merge 591 558 __________P___ -1 -14.9455 56.0126 7 7 247
1918091S13424 1918 28 SI MM NOT_NAMED 1918-04-02 12:00:00 NR -15.0712 55.7293 spur-merge 558 536 __________P___ -1 -15.0712 55.7293 7 5 244
1918091S13424 1918 28 SI MM NOT_NAMED 1918-04-02 15:00:00 NR -15.1864 55.5064 spur-merge 536 515 __________P___ -1 -15.1864 55.5064 7 5 241
1918091S13424 1918 28 SI MM NOT_NAMED 1918-04-02 18:00:00 NR -15.3000 55.3000 spur-merge 515 493 __________O___ -1 -15.3000 55.3000 7 5 241
1918091S13424 1918 28 SI MM NOT_NAMED 1918-04-02 21:00:00 NR -15.4190 55.0744 spur-merge 493 461 __________P___ -1 -15.4190 55.0744 7 5 242
1918091S13424 1918 28 SI MM NOT_NAMED 1918-04-03 00:00:00 NR -15.5433 54.8280 spur-merge 461 440 __________P___ -1 -15.5433 54.8280 7 6 243
1918091S13424 1918 28 SI MM NOT_NAMED 1918-04-03 03:00:00 NR -15.6709 54.5676 spur-merge 440 409 __________P___ -1 -15.6709 54.5676 7 6 243
1918091S13424 1918 28 SI MM NOT_NAMED 1918-04-03 06:00:00 NR -15.8000 54.3000 spur-merge 409 __________O___ -1 -15.8000 54.3000 7 6 243

About IBTrACS Database

This database is a web-friendly format of International Best Track Archive for Climate Stewardship (IBTrACS), a global best track data archive curated by NOAA dating back to 1842.

Updated: 2021-12-01